sensor_id;sensor_type;location;lat;lon;timestamp;P1;durP1;ratioP1;P2;durP2;ratioP2
6642;SDS011;3357;48.050;7.800;2023-02-28T00:00:08;2.77;;;1.27;;
6642;SDS011;3357;48.050;7.800;2023-02-28T00:02:38;1.60;;;1.17;;
6642;SDS011;3357;48.050;7.800;2023-02-28T00:05:04;1.40;;;1.30;;
6642;SDS011;3357;48.050;7.800;2023-02-28T00:07:31;1.17;;;1.10;;
6642;SDS011;3357;48.050;7.800;2023-02-28T00:09:56;2.00;;;1.10;;
6642;SDS011;3357;48.050;7.800;2023-02-28T00:12:22;1.73;;;1.50;;
6642;SDS011;3357;48.050;7.800;2023-02-28T00:14:47;3.10;;;1.20;;
6642;SDS011;3357;48.050;7.800;2023-02-28T00:17:13;1.83;;;1.57;;
6642;SDS011;3357;48.050;7.800;2023-02-28T00:19:38;3.27;;;1.30;;
6642;SDS011;3357;48.050;7.800;2023-02-28T00:22:03;1.70;;;1.60;;
6642;SDS011;3357;48.050;7.800;2023-02-28T00:24:29;1.43;;;1.33;;
6642;SDS011;3357;48.050;7.800;2023-02-28T00:26:54;2.07;;;1.20;;
6642;SDS011;3357;48.050;7.800;2023-02-28T00:29:19;2.10;;;1.80;;
6642;SDS011;3357;48.050;7.800;2023-02-28T00:31:44;2.40;;;1.73;;
6642;SDS011;3357;48.050;7.800;2023-02-28T00:34:10;3.43;;;1.70;;
6642;SDS011;3357;48.050;7.800;2023-02-28T00:36:35;3.00;;;1.40;;
6642;SDS011;3357;48.050;7.800;2023-02-28T00:39:00;2.20;;;1.40;;
6642;SDS011;3357;48.050;7.800;2023-02-28T00:41:25;4.47;;;2.20;;
6642;SDS011;3357;48.050;7.800;2023-02-28T00:43:51;3.20;;;2.17;;
6642;SDS011;3357;48.050;7.800;2023-02-28T00:46:16;2.90;;;1.80;;
6642;SDS011;3357;48.050;7.800;2023-02-28T00:48:41;1.80;;;1.70;;
6642;SDS011;3357;48.050;7.800;2023-02-28T00:51:06;1.30;;;1.20;;
6642;SDS011;3357;48.050;7.800;2023-02-28T00:53:32;1.53;;;1.17;;
6642;SDS011;3357;48.050;7.800;2023-02-28T00:55:57;1.33;;;1.23;;
6642;SDS011;3357;48.050;7.800;2023-02-28T00:58:23;2.30;;;1.20;;
6642;SDS011;3357;48.050;7.800;2023-02-28T01:00:48;3.10;;;1.70;;
6642;SDS011;3357;48.050;7.800;2023-02-28T01:03:15;1.30;;;1.30;;
6642;SDS011;3357;48.050;7.800;2023-02-28T01:05:43;2.00;;;1.40;;
6642;SDS011;3357;48.050;7.800;2023-02-28T01:08:09;1.37;;;1.10;;
6642;SDS011;3357;48.050;7.800;2023-02-28T01:10:34;1.93;;;1.60;;
6642;SDS011;3357;48.050;7.800;2023-02-28T01:13:01;2.80;;;1.57;;
6642;SDS011;3357;48.050;7.800;2023-02-28T01:15:26;1.17;;;1.10;;
6642;SDS011;3357;48.050;7.800;2023-02-28T01:17:51;2.60;;;1.63;;
6642;SDS011;3357;48.050;7.800;2023-02-28T01:20:17;1.80;;;1.53;;
6642;SDS011;3357;48.050;7.800;2023-02-28T01:22:42;3.37;;;1.17;;
6642;SDS011;3357;48.050;7.800;2023-02-28T01:25:07;1.43;;;1.20;;
6642;SDS011;3357;48.050;7.800;2023-02-28T01:27:33;1.47;;;1.37;;
6642;SDS011;3357;48.050;7.800;2023-02-28T01:29:58;1.43;;;1.33;;
6642;SDS011;3357;48.050;7.800;2023-02-28T01:32:23;1.40;;;1.30;;
6642;SDS011;3357;48.050;7.800;2023-02-28T01:34:49;1.60;;;1.50;;
6642;SDS011;3357;48.050;7.800;2023-02-28T01:37:14;1.20;;;1.10;;
6642;SDS011;3357;48.050;7.800;2023-02-28T01:39:39;1.33;;;1.20;;
6642;SDS011;3357;48.050;7.800;2023-02-28T01:42:04;4.37;;;1.30;;
6642;SDS011;3357;48.050;7.800;2023-02-28T01:47:38;1.77;;;1.30;;
6642;SDS011;3357;48.050;7.800;2023-02-28T01:50:06;1.10;;;1.00;;
6642;SDS011;3357;48.050;7.800;2023-02-28T01:52:33;1.50;;;1.40;;
6642;SDS011;3357;48.050;7.800;2023-02-28T01:54:59;1.30;;;1.20;;
6642;SDS011;3357;48.050;7.800;2023-02-28T01:57:28;1.50;;;1.40;;
6642;SDS011;3357;48.050;7.800;2023-02-28T02:00:03;1.43;;;1.30;;
6642;SDS011;3357;48.050;7.800;2023-02-28T02:02:35;1.87;;;1.47;;
6642;SDS011;3357;48.050;7.800;2023-02-28T02:05:05;1.50;;;1.40;;
6642;SDS011;3357;48.050;7.800;2023-02-28T02:07:34;3.00;;;1.40;;
6642;SDS011;3357;48.050;7.800;2023-02-28T02:35:42;3.30;;;1.50;;
6642;SDS011;3357;48.050;7.800;2023-02-28T02:38:25;2.67;;;1.70;;
6642;SDS011;3357;48.050;7.800;2023-02-28T02:43:46;1.33;;;1.20;;
6642;SDS011;3357;48.050;7.800;2023-02-28T02:49:15;2.43;;;1.20;;
6642;SDS011;3357;48.050;7.800;2023-02-28T02:51:42;1.97;;;1.57;;
6642;SDS011;3357;48.050;7.800;2023-02-28T02:54:19;1.47;;;1.33;;
6642;SDS011;3357;48.050;7.800;2023-02-28T02:56:47;1.40;;;1.30;;
6642;SDS011;3357;48.050;7.800;2023-02-28T02:59:14;1.30;;;1.20;;
6642;SDS011;3357;48.050;7.800;2023-02-28T03:01:47;1.43;;;1.40;;
6642;SDS011;3357;48.050;7.800;2023-02-28T03:04:16;1.10;;;1.10;;
6642;SDS011;3357;48.050;7.800;2023-02-28T03:06:44;1.40;;;1.30;;
6642;SDS011;3357;48.050;7.800;2023-02-28T03:09:09;3.03;;;1.10;;
6642;SDS011;3357;48.050;7.800;2023-02-28T03:11:35;1.57;;;1.47;;
6642;SDS011;3357;48.050;7.800;2023-02-28T03:14:04;2.20;;;1.10;;
6642;SDS011;3357;48.050;7.800;2023-02-28T03:24:52;1.70;;;1.23;;
6642;SDS011;3357;48.050;7.800;2023-02-28T03:27:23;1.03;;;1.00;;
6642;SDS011;3357;48.050;7.800;2023-02-28T03:29:57;1.40;;;1.30;;
6642;SDS011;3357;48.050;7.800;2023-02-28T03:32:51;1.40;;;1.10;;
6642;SDS011;3357;48.050;7.800;2023-02-28T03:35:21;1.43;;;1.20;;
6642;SDS011;3357;48.050;7.800;2023-02-28T03:37:53;1.50;;;1.37;;
6642;SDS011;3357;48.050;7.800;2023-02-28T03:40:23;1.30;;;1.17;;
6642;SDS011;3357;48.050;7.800;2023-02-28T03:42:51;1.33;;;1.23;;
6642;SDS011;3357;48.050;7.800;2023-02-28T03:45:21;1.30;;;1.20;;
6642;SDS011;3357;48.050;7.800;2023-02-28T03:50:27;1.40;;;1.30;;
6642;SDS011;3357;48.050;7.800;2023-02-28T03:53:04;2.40;;;1.20;;
6642;SDS011;3357;48.050;7.800;2023-02-28T03:55:34;1.53;;;1.43;;
6642;SDS011;3357;48.050;7.800;2023-02-28T04:00:43;2.10;;;1.40;;
6642;SDS011;3357;48.050;7.800;2023-02-28T04:03:11;2.07;;;1.47;;
6642;SDS011;3357;48.050;7.800;2023-02-28T04:05:48;1.53;;;1.43;;
6642;SDS011;3357;48.050;7.800;2023-02-28T04:08:16;1.50;;;1.40;;
6642;SDS011;3357;48.050;7.800;2023-02-28T04:10:42;1.23;;;1.20;;
6642;SDS011;3357;48.050;7.800;2023-02-28T04:13:10;2.83;;;1.50;;
6642;SDS011;3357;48.050;7.800;2023-02-28T04:15:35;2.20;;;1.60;;
6642;SDS011;3357;48.050;7.800;2023-02-28T04:18:01;2.07;;;1.23;;
6642;SDS011;3357;48.050;7.800;2023-02-28T04:20:27;1.20;;;1.20;;
6642;SDS011;3357;48.050;7.800;2023-02-28T04:22:52;2.30;;;1.40;;
6642;SDS011;3357;48.050;7.800;2023-02-28T04:25:18;1.77;;;1.20;;
6642;SDS011;3357;48.050;7.800;2023-02-28T04:27:43;2.43;;;1.60;;
6642;SDS011;3357;48.050;7.800;2023-02-28T04:30:09;1.70;;;1.60;;
6642;SDS011;3357;48.050;7.800;2023-02-28T04:32:35;1.53;;;1.40;;
6642;SDS011;3357;48.050;7.800;2023-02-28T04:35:01;2.23;;;1.30;;
6642;SDS011;3357;48.050;7.800;2023-02-28T04:37:26;1.23;;;1.13;;
6642;SDS011;3357;48.050;7.800;2023-02-28T04:39:53;2.20;;;1.67;;
6642;SDS011;3357;48.050;7.800;2023-02-28T04:42:19;1.53;;;1.43;;
6642;SDS011;3357;48.050;7.800;2023-02-28T04:44:44;1.77;;;1.40;;
6642;SDS011;3357;48.050;7.800;2023-02-28T04:47:10;1.50;;;1.40;;
6642;SDS011;3357;48.050;7.800;2023-02-28T04:49:35;2.00;;;1.80;;
6642;SDS011;3357;48.050;7.800;2023-02-28T04:52:00;1.83;;;1.73;;
6642;SDS011;3357;48.050;7.800;2023-02-28T04:54:25;3.57;;;2.03;;
6642;SDS011;3357;48.050;7.800;2023-02-28T04:56:51;1.97;;;1.70;;
6642;SDS011;3357;48.050;7.800;2023-02-28T04:59:16;1.90;;;1.57;;
6642;SDS011;3357;48.050;7.800;2023-02-28T05:01:44;3.40;;;1.90;;
6642;SDS011;3357;48.050;7.800;2023-02-28T05:04:11;2.90;;;1.93;;
6642;SDS011;3357;48.050;7.800;2023-02-28T05:06:36;1.97;;;1.80;;
6642;SDS011;3357;48.050;7.800;2023-02-28T05:09:01;1.57;;;1.47;;
6642;SDS011;3357;48.050;7.800;2023-02-28T05:11:30;1.53;;;1.43;;
6642;SDS011;3357;48.050;7.800;2023-02-28T05:14:10;2.33;;;1.83;;
6642;SDS011;3357;48.050;7.800;2023-02-28T05:16:37;2.10;;;1.30;;
6642;SDS011;3357;48.050;7.800;2023-02-28T05:19:03;1.53;;;1.43;;
6642;SDS011;3357;48.050;7.800;2023-02-28T05:23:55;1.80;;;1.70;;
6642;SDS011;3357;48.050;7.800;2023-02-28T05:26:21;1.70;;;1.53;;
6642;SDS011;3357;48.050;7.800;2023-02-28T05:28:47;1.80;;;1.63;;
6642;SDS011;3357;48.050;7.800;2023-02-28T05:31:12;2.43;;;2.00;;
6642;SDS011;3357;48.050;7.800;2023-02-28T05:33:38;1.60;;;1.50;;
6642;SDS011;3357;48.050;7.800;2023-02-28T05:36:04;2.10;;;1.63;;
6642;SDS011;3357;48.050;7.800;2023-02-28T05:38:30;1.70;;;1.60;;
6642;SDS011;3357;48.050;7.800;2023-02-28T05:40:55;1.60;;;1.50;;
6642;SDS011;3357;48.050;7.800;2023-02-28T05:43:21;1.93;;;1.43;;
6642;SDS011;3357;48.050;7.800;2023-02-28T05:45:46;3.27;;;1.90;;
6642;SDS011;3357;48.050;7.800;2023-02-28T05:48:12;3.57;;;2.00;;
6642;SDS011;3357;48.050;7.800;2023-02-28T05:50:37;1.90;;;1.70;;
6642;SDS011;3357;48.050;7.800;2023-02-28T05:53:02;1.57;;;1.47;;
6642;SDS011;3357;48.050;7.800;2023-02-28T05:55:28;2.13;;;1.93;;
6642;SDS011;3357;48.050;7.800;2023-02-28T05:57:53;1.63;;;1.53;;
6642;SDS011;3357;48.050;7.800;2023-02-28T06:00:19;3.03;;;2.10;;
6642;SDS011;3357;48.050;7.800;2023-02-28T06:02:45;2.03;;;1.60;;
6642;SDS011;3357;48.050;7.800;2023-02-28T06:05:14;1.90;;;1.80;;
6642;SDS011;3357;48.050;7.800;2023-02-28T06:07:40;1.70;;;1.60;;
6642;SDS011;3357;48.050;7.800;2023-02-28T06:10:06;3.73;;;2.37;;
6642;SDS011;3357;48.050;7.800;2023-02-28T06:12:31;1.83;;;1.73;;
6642;SDS011;3357;48.050;7.800;2023-02-28T06:14:57;1.80;;;1.70;;
6642;SDS011;3357;48.050;7.800;2023-02-28T06:17:22;2.33;;;2.03;;
6642;SDS011;3357;48.050;7.800;2023-02-28T06:19:47;3.10;;;2.20;;
6642;SDS011;3357;48.050;7.800;2023-02-28T06:22:13;6.13;;;2.30;;
6642;SDS011;3357;48.050;7.800;2023-02-28T06:24:38;2.00;;;1.80;;
6642;SDS011;3357;48.050;7.800;2023-02-28T06:27:03;2.57;;;2.33;;
6642;SDS011;3357;48.050;7.800;2023-02-28T06:29:30;2.20;;;2.03;;
6642;SDS011;3357;48.050;7.800;2023-02-28T06:31:56;1.90;;;1.80;;
6642;SDS011;3357;48.050;7.800;2023-02-28T06:34:21;1.80;;;1.70;;
6642;SDS011;3357;48.050;7.800;2023-02-28T06:36:49;2.23;;;2.03;;
6642;SDS011;3357;48.050;7.800;2023-02-28T06:39:15;2.87;;;2.60;;
6642;SDS011;3357;48.050;7.800;2023-02-28T06:41:40;3.23;;;2.13;;
6642;SDS011;3357;48.050;7.800;2023-02-28T06:44:12;2.33;;;2.20;;
6642;SDS011;3357;48.050;7.800;2023-02-28T06:46:40;1.90;;;1.80;;
6642;SDS011;3357;48.050;7.800;2023-02-28T06:49:06;3.70;;;2.23;;
6642;SDS011;3357;48.050;7.800;2023-02-28T06:51:33;6.10;;;2.60;;
6642;SDS011;3357;48.050;7.800;2023-02-28T06:53:59;2.30;;;2.10;;
6642;SDS011;3357;48.050;7.800;2023-02-28T06:56:25;3.47;;;2.20;;
6642;SDS011;3357;48.050;7.800;2023-02-28T06:58:50;4.10;;;2.20;;
6642;SDS011;3357;48.050;7.800;2023-02-28T07:01:17;3.13;;;2.30;;
6642;SDS011;3357;48.050;7.800;2023-02-28T07:03:43;2.37;;;2.20;;
6642;SDS011;3357;48.050;7.800;2023-02-28T07:06:09;2.40;;;2.20;;
6642;SDS011;3357;48.050;7.800;2023-02-28T07:08:34;2.53;;;2.33;;
6642;SDS011;3357;48.050;7.800;2023-02-28T07:11:00;3.87;;;2.00;;
6642;SDS011;3357;48.050;7.800;2023-02-28T07:13:26;2.97;;;2.20;;
6642;SDS011;3357;48.050;7.800;2023-02-28T07:15:55;4.40;;;2.47;;
6642;SDS011;3357;48.050;7.800;2023-02-28T07:18:23;2.83;;;2.60;;
6642;SDS011;3357;48.050;7.800;2023-02-28T07:20:49;2.87;;;2.10;;
6642;SDS011;3357;48.050;7.800;2023-02-28T07:23:14;2.10;;;2.00;;
6642;SDS011;3357;48.050;7.800;2023-02-28T07:25:39;2.47;;;2.30;;
6642;SDS011;3357;48.050;7.800;2023-02-28T07:28:05;3.50;;;2.27;;
6642;SDS011;3357;48.050;7.800;2023-02-28T07:30:30;3.07;;;2.73;;
6642;SDS011;3357;48.050;7.800;2023-02-28T07:32:55;2.70;;;2.30;;
6642;SDS011;3357;48.050;7.800;2023-02-28T07:35:21;2.13;;;2.00;;
6642;SDS011;3357;48.050;7.800;2023-02-28T07:37:47;2.97;;;2.53;;
6642;SDS011;3357;48.050;7.800;2023-02-28T07:40:12;5.50;;;2.70;;
6642;SDS011;3357;48.050;7.800;2023-02-28T07:42:38;2.40;;;2.20;;
6642;SDS011;3357;48.050;7.800;2023-02-28T07:45:04;1.70;;;1.53;;
6642;SDS011;3357;48.050;7.800;2023-02-28T07:47:30;4.33;;;2.67;;
6642;SDS011;3357;48.050;7.800;2023-02-28T07:49:55;2.70;;;2.50;;
6642;SDS011;3357;48.050;7.800;2023-02-28T07:52:21;2.77;;;1.97;;
6642;SDS011;3357;48.050;7.800;2023-02-28T07:54:48;2.40;;;2.10;;
6642;SDS011;3357;48.050;7.800;2023-02-28T07:57:13;2.00;;;1.90;;
6642;SDS011;3357;48.050;7.800;2023-02-28T07:59:39;2.60;;;2.20;;
6642;SDS011;3357;48.050;7.800;2023-02-28T08:02:04;2.90;;;2.10;;
6642;SDS011;3357;48.050;7.800;2023-02-28T08:04:31;3.40;;;2.70;;
6642;SDS011;3357;48.050;7.800;2023-02-28T08:06:57;2.60;;;2.40;;
6642;SDS011;3357;48.050;7.800;2023-02-28T08:09:22;2.90;;;2.70;;
6642;SDS011;3357;48.050;7.800;2023-02-28T08:11:47;3.40;;;2.40;;
6642;SDS011;3357;48.050;7.800;2023-02-28T08:14:13;3.90;;;2.60;;
6642;SDS011;3357;48.050;7.800;2023-02-28T08:16:38;2.50;;;2.30;;
6642;SDS011;3357;48.050;7.800;2023-02-28T08:19:04;2.87;;;2.17;;
6642;SDS011;3357;48.050;7.800;2023-02-28T08:21:29;2.40;;;2.20;;
6642;SDS011;3357;48.050;7.800;2023-02-28T08:23:54;2.70;;;2.50;;
6642;SDS011;3357;48.050;7.800;2023-02-28T08:26:21;2.60;;;2.40;;
6642;SDS011;3357;48.050;7.800;2023-02-28T08:28:46;3.27;;;2.40;;
6642;SDS011;3357;48.050;7.800;2023-02-28T08:31:12;3.27;;;2.97;;
6642;SDS011;3357;48.050;7.800;2023-02-28T08:33:39;3.17;;;2.87;;
6642;SDS011;3357;48.050;7.800;2023-02-28T08:36:06;2.53;;;2.33;;
6642;SDS011;3357;48.050;7.800;2023-02-28T08:38:32;4.20;;;3.20;;
6642;SDS011;3357;48.050;7.800;2023-02-28T08:41:00;3.40;;;2.80;;
6642;SDS011;3357;48.050;7.800;2023-02-28T08:43:28;3.20;;;2.90;;
6642;SDS011;3357;48.050;7.800;2023-02-28T08:45:54;5.53;;;3.20;;
6642;SDS011;3357;48.050;7.800;2023-02-28T08:48:21;4.20;;;2.83;;
6642;SDS011;3357;48.050;7.800;2023-02-28T08:50:56;4.03;;;3.33;;
6642;SDS011;3357;48.050;7.800;2023-02-28T08:53:25;13.20;;;5.10;;
6642;SDS011;3357;48.050;7.800;2023-02-28T08:56:00;4.40;;;3.30;;
6642;SDS011;3357;48.050;7.800;2023-02-28T08:58:29;7.53;;;4.10;;
6642;SDS011;3357;48.050;7.800;2023-02-28T09:00:54;5.60;;;4.10;;
6642;SDS011;3357;48.050;7.800;2023-02-28T09:03:20;4.43;;;3.50;;
6642;SDS011;3357;48.050;7.800;2023-02-28T09:05:53;3.63;;;3.40;;
6642;SDS011;3357;48.050;7.800;2023-02-28T09:08:23;3.40;;;3.00;;
6642;SDS011;3357;48.050;7.800;2023-02-28T09:10:51;2.83;;;2.60;;
6642;SDS011;3357;48.050;7.800;2023-02-28T09:13:17;3.40;;;2.90;;
6642;SDS011;3357;48.050;7.800;2023-02-28T09:15:43;2.80;;;2.60;;
6642;SDS011;3357;48.050;7.800;2023-02-28T09:18:08;3.60;;;2.97;;
6642;SDS011;3357;48.050;7.800;2023-02-28T09:20:33;3.83;;;2.77;;
6642;SDS011;3357;48.050;7.800;2023-02-28T09:22:59;4.83;;;3.63;;
6642;SDS011;3357;48.050;7.800;2023-02-28T09:25:24;4.20;;;3.80;;
6642;SDS011;3357;48.050;7.800;2023-02-28T09:27:49;8.60;;;4.90;;
6642;SDS011;3357;48.050;7.800;2023-02-28T09:30:15;4.57;;;3.90;;
6642;SDS011;3357;48.050;7.800;2023-02-28T09:32:41;6.10;;;5.13;;
6642;SDS011;3357;48.050;7.800;2023-02-28T09:35:06;4.70;;;3.00;;
6642;SDS011;3357;48.050;7.800;2023-02-28T09:37:32;3.80;;;3.50;;
6642;SDS011;3357;48.050;7.800;2023-02-28T09:39:57;2.90;;;2.70;;
6642;SDS011;3357;48.050;7.800;2023-02-28T09:42:29;5.97;;;3.50;;
6642;SDS011;3357;48.050;7.800;2023-02-28T09:44:57;4.53;;;4.13;;
6642;SDS011;3357;48.050;7.800;2023-02-28T09:47:30;5.63;;;3.90;;
6642;SDS011;3357;48.050;7.800;2023-02-28T09:49:58;3.97;;;3.47;;
6642;SDS011;3357;48.050;7.800;2023-02-28T09:52:30;4.60;;;3.30;;
6642;SDS011;3357;48.050;7.800;2023-02-28T09:55:19;3.83;;;3.40;;
6642;SDS011;3357;48.050;7.800;2023-02-28T09:57:47;10.20;;;3.27;;
6642;SDS011;3357;48.050;7.800;2023-02-28T10:02:46;7.77;;;4.23;;
6642;SDS011;3357;48.050;7.800;2023-02-28T10:05:19;3.83;;;3.43;;
6642;SDS011;3357;48.050;7.800;2023-02-28T10:13:13;4.17;;;3.27;;
6642;SDS011;3357;48.050;7.800;2023-02-28T10:15:38;4.53;;;4.13;;
6642;SDS011;3357;48.050;7.800;2023-02-28T10:18:04;4.40;;;4.00;;
6642;SDS011;3357;48.050;7.800;2023-02-28T10:20:34;4.33;;;3.70;;
6642;SDS011;3357;48.050;7.800;2023-02-28T10:23:04;4.50;;;3.83;;
6642;SDS011;3357;48.050;7.800;2023-02-28T10:25:53;4.27;;;3.50;;
6642;SDS011;3357;48.050;7.800;2023-02-28T10:28:24;3.60;;;3.30;;
6642;SDS011;3357;48.050;7.800;2023-02-28T10:30:51;6.03;;;3.20;;
6642;SDS011;3357;48.050;7.800;2023-02-28T10:33:19;3.50;;;3.20;;
6642;SDS011;3357;48.050;7.800;2023-02-28T10:35:45;4.13;;;3.33;;
6642;SDS011;3357;48.050;7.800;2023-02-28T10:38:21;5.00;;;4.53;;
6642;SDS011;3357;48.050;7.800;2023-02-28T10:40:52;4.00;;;3.60;;
6642;SDS011;3357;48.050;7.800;2023-02-28T10:43:28;3.50;;;3.30;;
6642;SDS011;3357;48.050;7.800;2023-02-28T10:48:38;4.47;;;3.70;;
6642;SDS011;3357;48.050;7.800;2023-02-28T10:51:08;4.00;;;3.60;;
6642;SDS011;3357;48.050;7.800;2023-02-28T10:53:52;5.40;;;4.17;;
6642;SDS011;3357;48.050;7.800;2023-02-28T10:56:18;4.60;;;3.47;;
6642;SDS011;3357;48.050;7.800;2023-02-28T11:01:55;5.63;;;3.90;;
6642;SDS011;3357;48.050;7.800;2023-02-28T11:09:44;4.57;;;3.70;;
6642;SDS011;3357;48.050;7.800;2023-02-28T11:15:03;4.43;;;3.97;;
6642;SDS011;3357;48.050;7.800;2023-02-28T11:17:31;4.00;;;3.60;;
6642;SDS011;3357;48.050;7.800;2023-02-28T11:20:06;4.03;;;3.53;;
6642;SDS011;3357;48.050;7.800;2023-02-28T11:22:33;3.60;;;3.33;;
6642;SDS011;3357;48.050;7.800;2023-02-28T11:25:06;5.13;;;4.20;;
6642;SDS011;3357;48.050;7.800;2023-02-28T11:30:02;4.17;;;3.77;;
6642;SDS011;3357;48.050;7.800;2023-02-28T11:32:29;5.20;;;3.83;;
6642;SDS011;3357;48.050;7.800;2023-02-28T11:37:39;5.30;;;3.83;;
6642;SDS011;3357;48.050;7.800;2023-02-28T11:40:14;5.67;;;3.70;;
6642;SDS011;3357;48.050;7.800;2023-02-28T11:45:47;4.53;;;3.77;;
6642;SDS011;3357;48.050;7.800;2023-02-28T11:48:20;5.93;;;4.33;;
6642;SDS011;3357;48.050;7.800;2023-02-28T11:59:09;6.07;;;4.40;;
6642;SDS011;3357;48.050;7.800;2023-02-28T12:02:02;7.70;;;4.50;;
6642;SDS011;3357;48.050;7.800;2023-02-28T12:10:29;9.47;;;5.73;;
6642;SDS011;3357;48.050;7.800;2023-02-28T12:21:15;6.10;;;4.13;;
6642;SDS011;3357;48.050;7.800;2023-02-28T12:28:41;7.43;;;4.97;;
6642;SDS011;3357;48.050;7.800;2023-02-28T12:31:24;6.23;;;4.80;;
6642;SDS011;3357;48.050;7.800;2023-02-28T12:33:52;6.30;;;4.40;;
6642;SDS011;3357;48.050;7.800;2023-02-28T12:36:20;5.60;;;4.13;;
6642;SDS011;3357;48.050;7.800;2023-02-28T12:39:00;7.20;;;5.03;;
6642;SDS011;3357;48.050;7.800;2023-02-28T12:44:04;6.47;;;4.87;;
6642;SDS011;3357;48.050;7.800;2023-02-28T12:46:34;5.30;;;4.80;;
6642;SDS011;3357;48.050;7.800;2023-02-28T12:49:04;6.23;;;5.00;;
6642;SDS011;3357;48.050;7.800;2023-02-28T12:51:33;8.27;;;5.03;;
6642;SDS011;3357;48.050;7.800;2023-02-28T12:54:04;4.90;;;4.40;;
6642;SDS011;3357;48.050;7.800;2023-02-28T12:59:04;6.70;;;4.77;;
6642;SDS011;3357;48.050;7.800;2023-02-28T13:09:34;4.33;;;3.90;;
6642;SDS011;3357;48.050;7.800;2023-02-28T13:11:59;7.23;;;5.80;;
6642;SDS011;3357;48.050;7.800;2023-02-28T13:19:55;6.30;;;5.10;;
6642;SDS011;3357;48.050;7.800;2023-02-28T13:24:56;5.73;;;4.80;;
6642;SDS011;3357;48.050;7.800;2023-02-28T13:27:32;5.10;;;4.50;;
6642;SDS011;3357;48.050;7.800;2023-02-28T13:44:00;7.70;;;5.33;;
6642;SDS011;3357;48.050;7.800;2023-02-28T13:46:27;7.07;;;4.93;;
6642;SDS011;3357;48.050;7.800;2023-02-28T13:48:53;6.33;;;5.10;;
6642;SDS011;3357;48.050;7.800;2023-02-28T13:51:34;9.10;;;5.10;;
6642;SDS011;3357;48.050;7.800;2023-02-28T13:54:13;9.03;;;6.17;;
6642;SDS011;3357;48.050;7.800;2023-02-28T14:02:27;6.33;;;5.40;;
6642;SDS011;3357;48.050;7.800;2023-02-28T14:05:06;8.57;;;5.53;;
6642;SDS011;3357;48.050;7.800;2023-02-28T14:07:41;7.20;;;6.10;;
6642;SDS011;3357;48.050;7.800;2023-02-28T14:10:20;6.77;;;5.40;;
6642;SDS011;3357;48.050;7.800;2023-02-28T14:12:59;6.67;;;5.17;;
6642;SDS011;3357;48.050;7.800;2023-02-28T14:15:28;7.80;;;5.77;;
6642;SDS011;3357;48.050;7.800;2023-02-28T14:18:01;9.13;;;6.43;;
6642;SDS011;3357;48.050;7.800;2023-02-28T14:20:29;7.27;;;5.83;;
6642;SDS011;3357;48.050;7.800;2023-02-28T14:31:22;7.43;;;5.67;;
6642;SDS011;3357;48.050;7.800;2023-02-28T14:36:39;6.73;;;5.70;;
6642;SDS011;3357;48.050;7.800;2023-02-28T14:39:07;9.10;;;5.73;;
6642;SDS011;3357;48.050;7.800;2023-02-28T14:41:38;6.50;;;5.33;;
6642;SDS011;3357;48.050;7.800;2023-02-28T14:44:18;7.47;;;6.27;;
6642;SDS011;3357;48.050;7.800;2023-02-28T14:46:43;6.23;;;5.30;;
6642;SDS011;3357;48.050;7.800;2023-02-28T14:49:16;7.50;;;5.30;;
6642;SDS011;3357;48.050;7.800;2023-02-28T14:51:43;8.37;;;5.97;;
6642;SDS011;3357;48.050;7.800;2023-02-28T14:54:12;8.13;;;5.27;;
6642;SDS011;3357;48.050;7.800;2023-02-28T14:56:39;6.30;;;4.80;;
6642;SDS011;3357;48.050;7.800;2023-02-28T14:59:06;7.63;;;5.80;;
6642;SDS011;3357;48.050;7.800;2023-02-28T15:01:48;10.20;;;5.97;;
6642;SDS011;3357;48.050;7.800;2023-02-28T15:04:18;10.47;;;5.43;;
6642;SDS011;3357;48.050;7.800;2023-02-28T15:07:06;5.90;;;5.23;;
6642;SDS011;3357;48.050;7.800;2023-02-28T15:09:32;9.60;;;5.50;;
6642;SDS011;3357;48.050;7.800;2023-02-28T15:11:57;6.13;;;5.10;;
6642;SDS011;3357;48.050;7.800;2023-02-28T15:14:22;6.87;;;4.90;;
6642;SDS011;3357;48.050;7.800;2023-02-28T15:16:51;9.30;;;5.10;;
6642;SDS011;3357;48.050;7.800;2023-02-28T15:19:22;7.80;;;5.60;;
6642;SDS011;3357;48.050;7.800;2023-02-28T15:21:51;9.63;;;5.37;;
6642;SDS011;3357;48.050;7.800;2023-02-28T15:27:16;7.87;;;5.40;;
6642;SDS011;3357;48.050;7.800;2023-02-28T15:29:47;7.47;;;5.50;;
6642;SDS011;3357;48.050;7.800;2023-02-28T15:35:16;6.60;;;5.47;;
6642;SDS011;3357;48.050;7.800;2023-02-28T15:37:48;6.87;;;5.40;;
6642;SDS011;3357;48.050;7.800;2023-02-28T15:42:58;9.67;;;6.13;;
6642;SDS011;3357;48.050;7.800;2023-02-28T15:50:44;9.40;;;6.60;;
6642;SDS011;3357;48.050;7.800;2023-02-28T15:53:15;7.60;;;6.33;;
6642;SDS011;3357;48.050;7.800;2023-02-28T15:55:43;10.03;;;5.70;;
6642;SDS011;3357;48.050;7.800;2023-02-28T15:58:09;8.23;;;5.70;;
6642;SDS011;3357;48.050;7.800;2023-02-28T16:00:37;7.47;;;5.70;;
6642;SDS011;3357;48.050;7.800;2023-02-28T16:03:22;8.60;;;6.10;;
6642;SDS011;3357;48.050;7.800;2023-02-28T16:06:07;8.50;;;6.33;;
6642;SDS011;3357;48.050;7.800;2023-02-28T16:08:52;9.90;;;7.37;;
6642;SDS011;3357;48.050;7.800;2023-02-28T16:11:18;8.77;;;6.23;;
6642;SDS011;3357;48.050;7.800;2023-02-28T16:13:44;7.63;;;5.83;;
6642;SDS011;3357;48.050;7.800;2023-02-28T16:16:14;7.60;;;6.10;;
6642;SDS011;3357;48.050;7.800;2023-02-28T16:18:41;8.87;;;6.20;;
6642;SDS011;3357;48.050;7.800;2023-02-28T16:21:06;7.67;;;5.83;;
6642;SDS011;3357;48.050;7.800;2023-02-28T16:23:31;6.20;;;5.43;;
6642;SDS011;3357;48.050;7.800;2023-02-28T16:25:57;7.27;;;5.33;;
6642;SDS011;3357;48.050;7.800;2023-02-28T16:28:27;9.07;;;5.90;;
6642;SDS011;3357;48.050;7.800;2023-02-28T16:30:57;9.63;;;6.57;;
6642;SDS011;3357;48.050;7.800;2023-02-28T16:33:22;7.70;;;6.50;;
6642;SDS011;3357;48.050;7.800;2023-02-28T16:35:48;12.33;;;7.93;;
6642;SDS011;3357;48.050;7.800;2023-02-28T16:38:14;12.10;;;7.17;;
6642;SDS011;3357;48.050;7.800;2023-02-28T16:40:39;16.07;;;9.57;;
6642;SDS011;3357;48.050;7.800;2023-02-28T16:43:05;33.30;;;17.27;;
6642;SDS011;3357;48.050;7.800;2023-02-28T16:45:33;29.67;;;15.77;;
6642;SDS011;3357;48.050;7.800;2023-02-28T16:47:58;12.93;;;8.33;;
6642;SDS011;3357;48.050;7.800;2023-02-28T16:50:25;10.33;;;6.93;;
6642;SDS011;3357;48.050;7.800;2023-02-28T16:52:52;57.43;;;25.83;;
6642;SDS011;3357;48.050;7.800;2023-02-28T16:55:19;24.30;;;13.30;;
6642;SDS011;3357;48.050;7.800;2023-02-28T16:57:47;24.80;;;11.63;;
6642;SDS011;3357;48.050;7.800;2023-02-28T17:00:18;15.20;;;9.50;;
6642;SDS011;3357;48.050;7.800;2023-02-28T17:02:43;12.87;;;9.10;;
6642;SDS011;3357;48.050;7.800;2023-02-28T17:05:11;14.27;;;8.20;;
6642;SDS011;3357;48.050;7.800;2023-02-28T17:07:36;9.63;;;7.20;;
6642;SDS011;3357;48.050;7.800;2023-02-28T17:10:04;11.73;;;8.20;;
6642;SDS011;3357;48.050;7.800;2023-02-28T17:12:47;13.73;;;9.00;;
6642;SDS011;3357;48.050;7.800;2023-02-28T17:15:13;11.53;;;7.50;;
6642;SDS011;3357;48.050;7.800;2023-02-28T17:17:39;10.43;;;8.03;;
6642;SDS011;3357;48.050;7.800;2023-02-28T17:20:05;21.90;;;12.60;;
6642;SDS011;3357;48.050;7.800;2023-02-28T17:22:32;19.73;;;11.90;;
6642;SDS011;3357;48.050;7.800;2023-02-28T17:24:57;20.73;;;12.27;;
6642;SDS011;3357;48.050;7.800;2023-02-28T17:27:23;37.13;;;18.03;;
6642;SDS011;3357;48.050;7.800;2023-02-28T17:29:49;24.00;;;13.90;;
6642;SDS011;3357;48.050;7.800;2023-02-28T17:32:14;24.67;;;15.20;;
6642;SDS011;3357;48.050;7.800;2023-02-28T17:34:40;32.30;;;17.60;;
6642;SDS011;3357;48.050;7.800;2023-02-28T17:37:05;25.33;;;14.43;;
6642;SDS011;3357;48.050;7.800;2023-02-28T17:39:30;25.17;;;13.57;;
6642;SDS011;3357;48.050;7.800;2023-02-28T17:41:56;41.13;;;18.60;;
6642;SDS011;3357;48.050;7.800;2023-02-28T17:44:22;41.43;;;19.33;;
6642;SDS011;3357;48.050;7.800;2023-02-28T17:46:49;38.37;;;17.77;;
6642;SDS011;3357;48.050;7.800;2023-02-28T17:49:14;44.27;;;18.20;;
6642;SDS011;3357;48.050;7.800;2023-02-28T17:51:40;30.33;;;13.70;;
6642;SDS011;3357;48.050;7.800;2023-02-28T17:54:05;28.13;;;11.87;;
6642;SDS011;3357;48.050;7.800;2023-02-28T17:56:31;18.77;;;11.97;;
6642;SDS011;3357;48.050;7.800;2023-02-28T17:58:58;24.50;;;12.53;;
6642;SDS011;3357;48.050;7.800;2023-02-28T18:01:23;27.97;;;13.90;;
6642;SDS011;3357;48.050;7.800;2023-02-28T18:03:51;26.70;;;14.53;;
6642;SDS011;3357;48.050;7.800;2023-02-28T18:06:19;26.47;;;13.23;;
6642;SDS011;3357;48.050;7.800;2023-02-28T18:08:46;20.70;;;12.13;;
6642;SDS011;3357;48.050;7.800;2023-02-28T18:11:12;19.33;;;12.07;;